SWR4CX LYBE-LSZH
Flight info
| Callsign | SWR4CX |
|---|---|
| Flight time | 1h 36m |
| Altitude | 36000 |
| Route | TUVAR DCT ADULA DCT NASSY DCT BEDOX DCT NAKUM DCT ERKIR DCT KPT L856 NEGRA |
| Aircraft | A321/M-SDE3FGHIRWY/LB1 |
Departure
| Time | 2026-05-04 09:44 |
|---|---|
| Airport | Belgrade Nikola Tesla Airport (LYBE) |
Arrival
| Time | 2026-05-04 11:20 |
|---|---|
| Airport | Zürich Airport (LSZH) |
| Time | Latitude | Longitude | Altitude | Speed | Heading |
|---|---|---|---|---|---|
| 2026-05-04 09:37 | 44.82218 | 20.28973 | 306 ft | 0 kts | 212° |
| 2026-05-04 09:37 | 44.82225 | 20.28979 | 305 ft | 4 kts | 212° |
| 2026-05-04 09:38 | 44.82248 | 20.28999 | 307 ft | 3 kts | 212° |
| 2026-05-04 09:38 | 44.82265 | 20.29017 | 305 ft | 4 kts | 241° |
| 2026-05-04 09:38 | 44.82269 | 20.29050 | 306 ft | 4 kts | 290° |
| 2026-05-04 09:38 | 44.82264 | 20.29066 | 307 ft | 0 kts | 302° |
| 2026-05-04 09:40 | 44.82266 | 20.29063 | 307 ft | 3 kts | 302° |
| 2026-05-04 09:40 | 44.82293 | 20.29002 | 307 ft | 10 kts | 302° |
| 2026-05-04 09:40 | 44.82330 | 20.28918 | 308 ft | 10 kts | 302° |
| 2026-05-04 09:41 | 44.82366 | 20.28816 | 308 ft | 12 kts | 281° |
| 2026-05-04 09:42 | 44.82579 | 20.28932 | 307 ft | 16 kts | 60° |
| 2026-05-04 09:43 | 44.82619 | 20.29070 | 308 ft | 13 kts | 84° |
| 2026-05-04 09:43 | 44.82612 | 20.29176 | 308 ft | 3 kts | 135° |
| 2026-05-04 09:43 | 44.82598 | 20.29207 | 307 ft | 10 kts | 122° |
| 2026-05-04 09:43 | 44.82454 | 20.29535 | 308 ft | 75 kts | 122° |
| 2026-05-04 09:44 | 44.82064 | 20.30413 | 307 ft | 133 kts | 122° |
| 2026-05-04 09:44 | 44.81506 | 20.31660 | 533 ft | 155 kts | 122° |
| 2026-05-04 09:44 | 44.80948 | 20.32945 | 1189 ft | 154 kts | 123° |
| 2026-05-04 09:46 | 44.71283 | 20.35273 | 4864 ft | 238 kts | 173° |
| 2026-05-04 09:46 | 44.69623 | 20.35537 | 5670 ft | 243 kts | 172° |
| 2026-05-04 09:46 | 44.67930 | 20.35813 | 5934 ft | 245 kts | 172° |
| 2026-05-04 09:47 | 44.66238 | 20.36090 | 6001 ft | 245 kts | 172° |
| 2026-05-04 09:47 | 44.64566 | 20.36360 | 6006 ft | 245 kts | 172° |
| 2026-05-04 09:49 | 44.52813 | 20.35404 | 9732 ft | 280 kts | 238° |
| 2026-05-04 09:49 | 44.52217 | 20.32744 | 10063 ft | 297 kts | 273° |
| 2026-05-04 09:49 | 44.52675 | 20.29933 | 10617 ft | 300 kts | 294° |
| 2026-05-04 09:51 | 44.57478 | 20.13078 | 14911 ft | 320 kts | 295° |
| 2026-05-04 09:51 | 44.58292 | 20.10156 | 15590 ft | 323 kts | 295° |
| 2026-05-04 09:51 | 44.59108 | 20.07209 | 16279 ft | 325 kts | 295° |
| 2026-05-04 09:51 | 44.59931 | 20.04236 | 16971 ft | 328 kts | 295° |
| 2026-05-04 09:52 | 44.60757 | 20.01249 | 17667 ft | 330 kts | 295° |
| 2026-05-04 09:52 | 44.61590 | 19.98237 | 18347 ft | 332 kts | 295° |
| 2026-05-04 09:52 | 44.62426 | 19.95198 | 18946 ft | 335 kts | 295° |
| 2026-05-04 09:52 | 44.63267 | 19.92138 | 19540 ft | 337 kts | 295° |
| 2026-05-04 09:53 | 44.64215 | 19.89125 | 20122 ft | 337 kts | 304° |
| 2026-05-04 09:53 | 44.65557 | 19.86458 | 20689 ft | 334 kts | 316° |
| 2026-05-04 09:53 | 44.67232 | 19.84216 | 21282 ft | 333 kts | 322° |
| 2026-05-04 09:53 | 44.68976 | 19.82054 | 21874 ft | 335 kts | 322° |
| 2026-05-04 09:54 | 44.70732 | 19.79875 | 22469 ft | 338 kts | 322° |
| 2026-05-04 09:54 | 44.72499 | 19.77681 | 23046 ft | 340 kts | 322° |
| 2026-05-04 09:54 | 44.74276 | 19.75464 | 23629 ft | 343 kts | 322° |
| 2026-05-04 09:54 | 44.76040 | 19.73256 | 24116 ft | 345 kts | 322° |
| 2026-05-04 09:55 | 44.77835 | 19.71002 | 24592 ft | 347 kts | 322° |
| 2026-05-04 09:55 | 44.79640 | 19.68736 | 25042 ft | 349 kts | 322° |
| 2026-05-04 09:55 | 44.81459 | 19.66452 | 25506 ft | 351 kts | 322° |
| 2026-05-04 09:55 | 44.83289 | 19.64153 | 25970 ft | 353 kts | 321° |
| 2026-05-04 09:56 | 44.85122 | 19.61846 | 26435 ft | 354 kts | 321° |
| 2026-05-04 09:56 | 44.86968 | 19.59524 | 26886 ft | 356 kts | 321° |
| 2026-05-04 09:56 | 44.88689 | 19.56987 | 27305 ft | 362 kts | 311° |
| 2026-05-04 09:56 | 44.90144 | 19.54064 | 27728 ft | 365 kts | 308° |
| 2026-05-04 09:57 | 44.91585 | 19.51103 | 28153 ft | 367 kts | 308° |
| 2026-05-04 09:57 | 44.93038 | 19.48132 | 28583 ft | 369 kts | 308° |
| 2026-05-04 09:57 | 44.94499 | 19.45151 | 28995 ft | 370 kts | 308° |
| 2026-05-04 09:57 | 44.95964 | 19.42154 | 29394 ft | 372 kts | 308° |
| 2026-05-04 09:58 | 44.97436 | 19.39139 | 29803 ft | 373 kts | 308° |
| 2026-05-04 09:58 | 44.98911 | 19.36112 | 30195 ft | 375 kts | 308° |
| 2026-05-04 09:58 | 45.00392 | 19.33073 | 30525 ft | 377 kts | 308° |
| 2026-05-04 10:00 | 45.10908 | 19.11394 | 32747 ft | 387 kts | 307° |
| 2026-05-04 10:00 | 45.12415 | 19.08229 | 33047 ft | 389 kts | 304° |
| 2026-05-04 10:02 | 45.20547 | 18.84005 | 34093 ft | 425 kts | 298° |
| 2026-05-04 10:04 | 45.29281 | 18.57455 | 36132 ft | 423 kts | 297° |
| 2026-05-04 10:04 | 45.31730 | 18.49942 | 36157 ft | 417 kts | 297° |
| 2026-05-04 10:05 | 45.34154 | 18.42485 | 36157 ft | 415 kts | 297° |
| 2026-05-04 10:05 | 45.36572 | 18.35047 | 36157 ft | 414 kts | 297° |
| 2026-05-04 10:06 | 45.38980 | 18.27606 | 36162 ft | 414 kts | 297° |
| 2026-05-04 10:06 | 45.41386 | 18.20164 | 36153 ft | 414 kts | 297° |
| 2026-05-04 10:08 | 45.50396 | 17.94544 | 36153 ft | 414 kts | 300° |
| 2026-05-04 10:08 | 45.53151 | 17.87343 | 36150 ft | 414 kts | 300° |
| 2026-05-04 10:09 | 45.55835 | 17.80141 | 36143 ft | 414 kts | 299° |
| 2026-05-04 10:09 | 45.58514 | 17.72882 | 36136 ft | 413 kts | 299° |
| 2026-05-04 10:10 | 45.61195 | 17.65615 | 36136 ft | 414 kts | 299° |
| 2026-05-04 10:10 | 45.63878 | 17.58349 | 36133 ft | 414 kts | 299° |
| 2026-05-04 10:11 | 45.66559 | 17.51071 | 36129 ft | 414 kts | 299° |
| 2026-05-04 10:11 | 45.69232 | 17.43775 | 36131 ft | 414 kts | 299° |
| 2026-05-04 10:12 | 45.71907 | 17.36482 | 36137 ft | 414 kts | 299° |
| 2026-05-04 10:12 | 45.74585 | 17.29184 | 36133 ft | 414 kts | 298° |
| 2026-05-04 10:13 | 45.77252 | 17.21867 | 36132 ft | 414 kts | 298° |
| 2026-05-04 10:13 | 45.79911 | 17.14553 | 36133 ft | 414 kts | 298° |
| 2026-05-04 10:14 | 45.82561 | 17.07231 | 36123 ft | 414 kts | 298° |
| 2026-05-04 10:16 | 45.93125 | 16.77866 | 36120 ft | 414 kts | 298° |
| 2026-05-04 10:16 | 45.95760 | 16.70509 | 36123 ft | 414 kts | 298° |
| 2026-05-04 10:17 | 45.98385 | 16.63139 | 36125 ft | 414 kts | 298° |
| 2026-05-04 10:19 | 46.08843 | 16.33584 | 36118 ft | 414 kts | 297° |
| 2026-05-04 10:19 | 46.11441 | 16.26182 | 36116 ft | 414 kts | 297° |
| 2026-05-04 10:20 | 46.14034 | 16.18776 | 36111 ft | 414 kts | 297° |
| 2026-05-04 10:20 | 46.16629 | 16.11374 | 36105 ft | 414 kts | 297° |
| 2026-05-04 10:21 | 46.19221 | 16.03960 | 36104 ft | 414 kts | 297° |
| 2026-05-04 10:21 | 46.21787 | 15.96579 | 36105 ft | 414 kts | 297° |
| 2026-05-04 10:22 | 46.25636 | 15.85431 | 36106 ft | 413 kts | 297° |
| 2026-05-04 10:23 | 46.28163 | 15.77963 | 36101 ft | 413 kts | 296° |
| 2026-05-04 10:25 | 46.37719 | 15.47698 | 36089 ft | 414 kts | 295° |
| 2026-05-04 10:25 | 46.40113 | 15.40112 | 36085 ft | 414 kts | 295° |
| 2026-05-04 10:26 | 46.42500 | 15.32525 | 36089 ft | 414 kts | 295° |
| 2026-05-04 10:26 | 46.44884 | 15.24929 | 36088 ft | 414 kts | 295° |
| 2026-05-04 10:27 | 46.47261 | 15.17329 | 36088 ft | 414 kts | 295° |
| 2026-05-04 10:27 | 46.49632 | 15.09723 | 36091 ft | 414 kts | 294° |
| 2026-05-04 10:28 | 46.51994 | 15.02129 | 36091 ft | 413 kts | 294° |
| 2026-05-04 10:28 | 46.54357 | 14.94518 | 36093 ft | 413 kts | 294° |
| 2026-05-04 10:29 | 46.56713 | 14.86902 | 36086 ft | 413 kts | 294° |
| 2026-05-04 10:29 | 46.59058 | 14.79284 | 36088 ft | 413 kts | 294° |
| 2026-05-04 10:30 | 46.61398 | 14.71656 | 36087 ft | 413 kts | 294° |
| 2026-05-04 10:30 | 46.63732 | 14.64023 | 36086 ft | 413 kts | 293° |
| 2026-05-04 10:31 | 46.66063 | 14.56385 | 36088 ft | 413 kts | 293° |
| 2026-05-04 10:32 | 46.74306 | 14.29713 | 36074 ft | 413 kts | 296° |
| 2026-05-04 10:33 | 46.77035 | 14.22331 | 36073 ft | 414 kts | 297° |
| 2026-05-04 10:33 | 46.79780 | 14.15003 | 36078 ft | 414 kts | 297° |
| 2026-05-04 10:34 | 46.82477 | 14.07569 | 36078 ft | 415 kts | 296° |
| 2026-05-04 10:34 | 46.85159 | 14.00047 | 36083 ft | 415 kts | 296° |
| 2026-05-04 10:35 | 46.87805 | 13.92608 | 36082 ft | 415 kts | 296° |
| 2026-05-04 10:35 | 46.90491 | 13.85057 | 36082 ft | 416 kts | 296° |
| 2026-05-04 10:36 | 46.93142 | 13.77599 | 36084 ft | 416 kts | 296° |
| 2026-05-04 10:36 | 46.95806 | 13.70085 | 36086 ft | 416 kts | 296° |
| 2026-05-04 10:37 | 46.98466 | 13.62561 | 36085 ft | 416 kts | 296° |
| 2026-05-04 10:37 | 47.01117 | 13.55035 | 36068 ft | 416 kts | 296° |
| 2026-05-04 10:39 | 47.10383 | 13.28599 | 36062 ft | 417 kts | 296° |
| 2026-05-04 10:40 | 47.13023 | 13.21017 | 36059 ft | 417 kts | 295° |
| 2026-05-04 10:40 | 47.15654 | 13.13416 | 36055 ft | 418 kts | 295° |
| 2026-05-04 10:41 | 47.18286 | 13.05802 | 36063 ft | 418 kts | 295° |
| 2026-05-04 10:41 | 47.20912 | 12.98182 | 36052 ft | 418 kts | 295° |
| 2026-05-04 10:42 | 47.23530 | 12.90549 | 36057 ft | 418 kts | 295° |
| 2026-05-04 10:42 | 47.26147 | 12.82925 | 36040 ft | 417 kts | 295° |
| 2026-05-04 10:43 | 47.28762 | 12.75294 | 36038 ft | 417 kts | 295° |
| 2026-05-04 10:45 | 47.39129 | 12.44723 | 36019 ft | 417 kts | 294° |
| 2026-05-04 10:45 | 47.41717 | 12.37051 | 36014 ft | 417 kts | 294° |
| 2026-05-04 10:46 | 47.43862 | 12.30669 | 36013 ft | 418 kts | 294° |
| 2026-05-04 10:46 | 47.46434 | 12.22974 | 36009 ft | 418 kts | 294° |
| 2026-05-04 10:47 | 47.49415 | 12.14018 | 36010 ft | 418 kts | 294° |
| 2026-05-04 10:47 | 47.51569 | 12.07554 | 35999 ft | 418 kts | 294° |
| 2026-05-04 10:49 | 47.57243 | 11.74664 | 35999 ft | 414 kts | 278° |
| 2026-05-04 10:50 | 47.58336 | 11.66303 | 35998 ft | 413 kts | 278° |
| 2026-05-04 10:52 | 47.62627 | 11.32837 | 35990 ft | 413 kts | 278° |
| 2026-05-04 10:52 | 47.63685 | 11.24445 | 35975 ft | 415 kts | 278° |
| 2026-05-04 10:54 | 47.67873 | 10.90813 | 36025 ft | 414 kts | 278° |
| 2026-05-04 10:56 | 47.71941 | 10.57313 | 36027 ft | 413 kts | 277° |
| 2026-05-04 10:57 | 47.72940 | 10.48923 | 36039 ft | 412 kts | 277° |
| 2026-05-04 10:57 | 47.73930 | 10.40539 | 36031 ft | 412 kts | 277° |
| 2026-05-04 10:58 | 47.74534 | 10.32127 | 36004 ft | 409 kts | 265° |
| 2026-05-04 10:58 | 47.74331 | 10.23675 | 35239 ft | 411 kts | 266° |
| 2026-05-04 10:58 | 47.74231 | 10.19354 | 33777 ft | 426 kts | 265° |
| 2026-05-04 10:59 | 47.74128 | 10.14902 | 32821 ft | 431 kts | 266° |
| 2026-05-04 10:59 | 47.74027 | 10.10504 | 32443 ft | 423 kts | 265° |
| 2026-05-04 10:59 | 47.73926 | 10.06156 | 31895 ft | 419 kts | 265° |
| 2026-05-04 10:59 | 47.73822 | 10.01853 | 31366 ft | 415 kts | 265° |
| 2026-05-04 11:00 | 47.73717 | 9.97593 | 30822 ft | 411 kts | 265° |
| 2026-05-04 11:01 | 47.72977 | 9.68872 | 27181 ft | 382 kts | 265° |
| 2026-05-04 11:02 | 47.72871 | 9.64946 | 26679 ft | 378 kts | 265° |
| 2026-05-04 11:02 | 47.72761 | 9.61064 | 26214 ft | 374 kts | 265° |
| 2026-05-04 11:05 | 47.59242 | 9.17544 | 20207 ft | 324 kts | 249° |
| 2026-05-04 11:06 | 47.58695 | 9.14311 | 19776 ft | 324 kts | 257° |
| 2026-05-04 11:06 | 47.58305 | 9.11025 | 19336 ft | 323 kts | 257° |
| 2026-05-04 11:06 | 47.57918 | 9.07760 | 18928 ft | 322 kts | 260° |
| 2026-05-04 11:06 | 47.57829 | 9.04433 | 18514 ft | 325 kts | 271° |
| 2026-05-04 11:08 | 47.62764 | 8.82290 | 15592 ft | 316 kts | 272° |
| 2026-05-04 11:10 | 47.59360 | 8.60954 | 12716 ft | 307 kts | 281° |
| 2026-05-04 11:12 | 47.69352 | 8.44817 | 10121 ft | 294 kts | 314° |
| 2026-05-04 11:12 | 47.70835 | 8.42780 | 9932 ft | 287 kts | 314° |
| 2026-05-04 11:12 | 47.72294 | 8.40770 | 9635 ft | 287 kts | 313° |
| 2026-05-04 11:12 | 47.73571 | 8.38539 | 9198 ft | 281 kts | 292° |
| 2026-05-04 11:13 | 47.74005 | 8.35789 | 8782 ft | 272 kts | 264° |
| 2026-05-04 11:13 | 47.73514 | 8.33148 | 8364 ft | 265 kts | 238° |
| 2026-05-04 11:13 | 47.72355 | 8.31042 | 7960 ft | 263 kts | 225° |
| 2026-05-04 11:13 | 47.71103 | 8.29055 | 7537 ft | 264 kts | 225° |
| 2026-05-04 11:14 | 47.69686 | 8.27350 | 7119 ft | 263 kts | 202° |
| 2026-05-04 11:14 | 47.67902 | 8.27064 | 6711 ft | 261 kts | 166° |
| 2026-05-04 11:14 | 47.66306 | 8.28312 | 6351 ft | 262 kts | 142° |
| 2026-05-04 11:16 | 47.58566 | 8.39405 | 4165 ft | 153 kts | 134° |
| 2026-05-04 11:16 | 47.57801 | 8.40457 | 3978 ft | 148 kts | 134° |
| 2026-05-04 11:16 | 47.57055 | 8.41484 | 3778 ft | 145 kts | 135° |
| 2026-05-04 11:17 | 47.56315 | 8.42501 | 3586 ft | 145 kts | 135° |
| 2026-05-04 11:17 | 47.55582 | 8.43507 | 3400 ft | 145 kts | 135° |
| 2026-05-04 11:19 | 47.50427 | 8.50571 | 2053 ft | 144 kts | 135° |
| 2026-05-04 11:19 | 47.49691 | 8.51577 | 1856 ft | 144 kts | 135° |
| 2026-05-04 11:19 | 47.48958 | 8.52582 | 1674 ft | 144 kts | 135° |
| 2026-05-04 11:19 | 47.48229 | 8.53580 | 1460 ft | 142 kts | 134° |
| 2026-05-04 11:20 | 47.47562 | 8.54497 | 1399 ft | 108 kts | 137° |
| 2026-05-04 11:20 | 47.47136 | 8.55079 | 1386 ft | 71 kts | 137° |
| 2026-05-04 11:20 | 47.46818 | 8.55510 | 1399 ft | 46 kts | 139° |
| 2026-05-04 11:20 | 47.46590 | 8.55682 | 1403 ft | 29 kts | 168° |
| 2026-05-04 11:22 | 47.46145 | 8.56004 | 1407 ft | 8 kts | 187° |
| 2026-05-04 11:22 | 47.46065 | 8.55988 | 1407 ft | 14 kts | 188° |
| 2026-05-04 11:23 | 47.45967 | 8.55965 | 1406 ft | 15 kts | 195° |
| 2026-05-04 11:23 | 47.45877 | 8.55922 | 1414 ft | 12 kts | 199° |
| 2026-05-04 11:24 | 47.45458 | 8.55952 | 1407 ft | 5 kts | 180° |
| 2026-05-04 11:25 | 47.45424 | 8.55948 | 1407 ft | 3 kts | 186° |
| 2026-05-04 11:25 | 47.45411 | 8.55946 | 1407 ft | 1 kts | 186° |
| 2026-05-04 11:25 | 47.45410 | 8.55945 | 1407 ft | 0 kts | 186° |